Pagrindinis puslapis
METAR-TAF:

METAR-TAF

Oro uostai :

Guarani tarptautinis oro uostas

Siudad del Estė, Paragvajus

platuma: 25-27-20S, ilguma: 054-50-37W, Aukštis: 257 m

Dabartinis oras

Ataskaita buvo paskelbta 39 minutes, ne 12:30 UTC
Vėjas 14 kt iš Pietų
Temperatūra 18°C
Drėgmė 59%
Slėgis 1018 hPa
Matomumas 10 km arba daugiau
nėra debesų žemiau 1500 m ir nėra kamuolinių lietaus debesų

METAR: SGES 201230Z 18014KT CAVOK 18/10 Q1018

Laikas: 09:09 (13:09 UTC)

Prognozė

Ataskaita buvo paskelbta 2 valandos ir 9 minutes, ne 11:00 UTC
Prognozė galioja nuo 20 metu 12 UTC su 21 metu 12 UTC
Vėjas 10 kt iš Pietų/Pietvakarių
Matomumas 10 km arba daugiau
nėra debesų žemiau 1500 m ir nėra kamuolinių lietaus debesų

TAF: SGES 201100Z 2012/2112 20010KT CAVOK TX25/2019Z TN10/2109Z

Orai ataskaitas ir orų prognozės (METAR, TAF).

turimą stotys yra geltonos ir raudonos taškus žemėlapyje.

Perkelti pele per norėdami pamatyti stoties vardą.

Tada spustelėkite, norėdami matyti oro stebėjimo ir prognozės.

Norėdami pakeisti žemėlapį: spustelėkite ant žalios mygtukų su juodo kryžiaus žemyn,; žalią mygtuką su brūkšneliu, jei norite nutolinti; arba žalių rodyklių gretimoms žemėlapius.


METAR-TAF: